createdAt,value
2019-03-04T00:02:55.947Z,2.12
2019-03-04T00:08:04.855Z,2.22
2019-03-04T00:13:12.275Z,1.76
2019-03-04T00:18:22.723Z,1.58
2019-03-04T00:23:48.249Z,1.45
2019-03-04T00:28:39.532Z,1.61
2019-03-04T00:33:36.948Z,1.49
2019-03-04T00:43:48.350Z,1.30
2019-03-04T00:48:57.382Z,1.77
2019-03-04T00:54:06.275Z,1.53
2019-03-04T00:59:28.918Z,1.68
2019-03-04T01:04:18.072Z,1.50
2019-03-04T01:09:25.693Z,1.46
2019-03-04T01:14:35.699Z,1.17
2019-03-04T01:19:34.855Z,1.03
2019-03-04T01:24:43.899Z,0.94
2019-03-04T01:34:59.840Z,1.18
2019-03-04T01:40:08.662Z,0.94
2019-03-04T01:45:17.580Z,0.99
2019-03-04T01:50:26.464Z,1.36
2019-03-04T01:55:35.977Z,1.30
2019-03-04T02:00:45.605Z,0.91
2019-03-04T02:05:52.366Z,1.00
2019-03-04T02:11:01.226Z,1.15
2019-03-04T02:16:10.100Z,0.82
2019-03-04T02:21:18.308Z,1.25
2019-03-04T02:26:27.883Z,0.86
2019-03-04T02:31:37.631Z,1.10
2019-03-04T02:36:46.553Z,0.92
2019-03-04T02:41:55.433Z,0.95
2019-03-04T02:47:10.389Z,1.12
2019-03-04T02:52:10.170Z,0.89
2019-03-04T02:57:25.344Z,1.23
2019-03-04T03:02:23.972Z,1.33
2019-03-04T03:07:34.696Z,1.25
2019-03-04T03:12:33.508Z,1.45
2019-03-04T03:17:41.563Z,1.67
2019-03-04T03:22:53.119Z,1.74
2019-03-04T03:27:50.533Z,1.95
2019-03-04T03:32:59.377Z,1.78
2019-03-04T03:38:06.749Z,2.60
2019-03-04T03:43:16.204Z,3.17
2019-03-04T03:48:26.084Z,3.17
2019-03-04T03:53:35.083Z,2.69
2019-03-04T03:58:44.075Z,2.56
2019-03-04T04:03:54.316Z,2.08
2019-03-04T04:08:54.310Z,2.00
2019-03-04T04:14:03.173Z,1.34
2019-03-04T04:19:12.029Z,1.25
2019-03-04T04:24:19.426Z,1.51
2019-03-04T04:29:28.592Z,1.58
2019-03-04T04:34:37.433Z,1.61
2019-03-04T04:39:46.245Z,1.39
2019-03-04T04:44:55.058Z,1.54
2019-03-04T04:50:04.212Z,1.79
2019-03-04T04:55:13.062Z,2.10
2019-03-04T05:00:21.891Z,1.64
2019-03-04T05:05:30.815Z,1.60
2019-03-04T05:10:39.702Z,1.80
2019-03-04T05:15:48.694Z,1.93
2019-03-04T05:20:59.432Z,1.75
2019-03-04T05:25:58.256Z,1.57
2019-03-04T05:31:07.127Z,1.76
2019-03-04T05:36:15.975Z,2.42
2019-03-04T05:41:24.847Z,3.32
2019-03-04T05:46:33.743Z,3.28
2019-03-04T05:51:42.886Z,3.47
2019-03-04T05:56:51.879Z,2.74
2019-03-04T06:02:03.040Z,2.54
2019-03-04T06:07:01.788Z,2.29
2019-03-04T06:12:11.385Z,1.97
2019-03-04T06:17:20.450Z,1.55
2019-03-04T06:22:29.457Z,1.31
2019-03-04T06:27:38.504Z,1.52
2019-03-04T06:32:47.531Z,1.51
2019-03-04T06:37:56.398Z,1.64
2019-03-04T06:43:05.251Z,1.46
2019-03-04T06:48:14.546Z,1.42
2019-03-04T06:53:23.787Z,1.32
2019-03-04T06:58:31.773Z,1.51
2019-03-04T07:03:40.620Z,1.28
2019-03-04T07:08:49.683Z,1.91
2019-03-04T07:13:58.672Z,1.46
2019-03-04T07:19:08.540Z,1.43
2019-03-04T07:24:17.468Z,1.18
2019-03-04T07:29:26.426Z,1.20
2019-03-04T07:34:35.290Z,1.53
2019-03-04T07:39:44.107Z,1.10
2019-03-04T07:44:53.010Z,1.35
2019-03-04T07:50:01.865Z,1.23
2019-03-04T07:55:10.839Z,1.79
2019-03-04T08:00:19.847Z,1.14
2019-03-04T08:05:28.679Z,1.32
2019-03-04T08:10:37.565Z,1.41
2019-03-04T08:15:46.443Z,1.37
2019-03-04T08:20:56.612Z,1.30
2019-03-04T08:25:55.540Z,1.08
2019-03-04T08:31:04.532Z,1.30
2019-03-04T08:36:13.718Z,1.21
2019-03-04T08:41:22.583Z,1.19
2019-03-04T08:46:31.589Z,1.15
2019-03-04T08:51:40.475Z,1.39
2019-03-04T08:56:49.359Z,1.07
2019-03-04T09:01:58.239Z,0.96
2019-03-04T09:07:07.118Z,1.19
2019-03-04T09:12:15.988Z,0.84
2019-03-04T09:17:24.837Z,1.23
2019-03-04T09:22:33.745Z,1.07
2019-03-04T09:27:42.819Z,1.09
2019-03-04T09:32:51.719Z,1.40
2019-03-04T09:38:00.572Z,1.18
2019-03-04T09:43:09.512Z,1.04
2019-03-04T09:48:18.401Z,1.19
2019-03-04T09:53:27.362Z,1.19
2019-03-04T09:58:36.328Z,0.61
2019-03-04T10:03:45.206Z,0.80
2019-03-04T10:08:54.046Z,0.58
2019-03-04T10:14:02.940Z,0.54
2019-03-04T10:19:11.784Z,0.57
2019-03-04T10:24:20.672Z,1.02
2019-03-04T10:29:29.525Z,0.80
2019-03-04T10:34:38.351Z,0.87
2019-03-04T10:39:47.351Z,0.72
2019-03-04T10:44:56.276Z,0.64
2019-03-04T10:50:05.118Z,0.70
2019-03-04T10:55:14.004Z,1.07
2019-03-04T11:00:22.864Z,1.04
2019-03-04T11:05:31.920Z,0.46
2019-03-04T11:10:40.810Z,0.72
2019-03-04T11:15:49.671Z,0.51
2019-03-04T11:20:58.659Z,0.57
2019-03-04T11:26:07.568Z,0.34
2019-03-04T11:31:16.453Z,0.42
2019-03-04T11:36:25.306Z,0.56
2019-03-04T11:41:34.214Z,0.88
2019-03-04T11:46:43.057Z,1.34
2019-03-04T11:51:51.912Z,0.89
2019-03-04T11:57:00.793Z,1.01
2019-03-04T12:02:09.598Z,0.85
2019-03-04T12:07:18.480Z,1.13
2019-03-04T12:12:27.339Z,1.06
2019-03-04T12:17:36.170Z,1.10
2019-03-04T12:22:45.196Z,1.11
2019-03-04T12:27:54.165Z,1.52
2019-03-04T12:33:03.048Z,2.20
2019-03-04T12:38:10.415Z,1.94
2019-03-04T12:43:19.728Z,1.91
2019-03-04T12:48:28.587Z,1.92
2019-03-04T12:53:37.679Z,2.22
2019-03-04T12:58:46.333Z,2.80
2019-03-04T13:03:55.273Z,2.18
2019-03-04T13:09:13.867Z,2.47
2019-03-04T13:14:12.818Z,1.75
2019-03-04T13:19:21.696Z,1.92
2019-03-04T13:24:30.546Z,1.85
2019-03-04T13:29:39.592Z,2.31
2019-03-04T13:34:48.488Z,1.68
2019-03-04T13:39:57.375Z,1.84
2019-03-04T13:45:08.348Z,1.39
2019-03-04T13:50:18.801Z,1.73
2019-03-04T13:55:16.381Z,2.82
2019-03-04T14:01:59.168Z,1.75
2019-03-04T14:05:38.416Z,1.60
2019-03-04T14:10:46.786Z,1.52
2019-03-04T14:15:44.151Z,1.63
2019-03-04T14:20:54.088Z,2.41
2019-03-04T14:26:03.010Z,1.87
2019-03-04T14:31:26.204Z,3.03
2019-03-04T14:36:13.828Z,2.04
2019-03-04T14:41:21.272Z,2.07
2019-03-04T14:46:28.741Z,2.57
2019-03-04T14:51:37.871Z,3.33
2019-03-04T14:56:48.888Z,2.75
2019-03-04T15:01:47.765Z,2.65
2019-03-04T15:06:57.680Z,1.82
2019-03-04T15:12:06.367Z,2.59
2019-03-04T15:17:27.760Z,3.81
2019-03-04T15:22:19.964Z,2.39
2019-03-04T15:27:20.416Z,2.52
2019-03-04T15:32:44.577Z,2.71
2019-03-04T15:38:02.940Z,4.59
2019-03-04T15:42:46.161Z,3.97
2019-03-04T15:47:57.427Z,3.18
2019-03-04T15:52:58.803Z,2.88
2019-03-04T15:57:58.897Z,1.38
2019-03-04T16:03:01.472Z,1.58
2019-03-04T16:07:51.371Z,3.46
2019-03-04T16:12:53.191Z,6.63
2019-03-04T16:17:52.414Z,2.43
2019-03-04T16:23:02.299Z,2.26
2019-03-04T16:28:11.155Z,1.58
2019-03-04T16:33:19.976Z,0.86
2019-03-04T16:38:39.914Z,0.93
2019-03-04T16:43:39.195Z,1.04
2019-03-04T16:48:48.307Z,1.33
2019-03-04T16:53:59.176Z,5.39
2019-03-04T16:58:58.077Z,1.31
2019-03-04T17:04:07.012Z,1.38
2019-03-04T17:09:16.078Z,1.30
2019-03-04T17:14:24.945Z,1.43
2019-03-04T17:19:33.921Z,1.20
2019-03-04T17:24:42.895Z,1.17
2019-03-04T17:29:51.876Z,0.62
2019-03-04T17:35:00.752Z,1.05
2019-03-04T17:40:09.719Z,0.69
2019-03-04T17:45:18.589Z,1.19
2019-03-04T17:50:28.080Z,1.66
2019-03-04T17:55:37.094Z,2.32
2019-03-04T18:00:46.084Z,2.40
2019-03-04T18:05:54.960Z,1.48
2019-03-04T18:11:04.673Z,1.43
2019-03-04T18:16:13.853Z,1.59
2019-03-04T18:21:22.781Z,1.33
2019-03-04T18:26:33.656Z,1.26
2019-03-04T18:31:35.367Z,1.06
2019-03-04T18:36:35.222Z,1.00
2019-03-04T18:41:44.320Z,1.29
2019-03-04T18:46:53.350Z,1.29
2019-03-04T18:52:02.131Z,0.67
2019-03-04T18:57:10.995Z,0.78
2019-03-04T19:02:19.871Z,1.07
2019-03-04T19:07:28.846Z,1.44
2019-03-04T19:12:37.715Z,1.65
2019-03-04T19:17:47.190Z,1.18
2019-03-04T19:28:02.771Z,1.25
2019-03-04T19:33:11.597Z,1.13
2019-03-04T19:38:20.497Z,1.02
2019-03-04T19:43:32.891Z,1.13
2019-03-04T19:48:37.830Z,1.38
2019-03-04T19:53:46.712Z,2.38
2019-03-04T19:58:58.295Z,1.29
2019-03-04T20:03:59.857Z,1.54
2019-03-04T20:08:58.864Z,2.45
2019-03-04T20:14:07.999Z,1.23
2019-03-04T20:34:33.935Z,2.04
2019-03-04T20:39:55.689Z,2.50
2019-03-04T20:44:34.481Z,1.60
2019-03-04T20:49:45.631Z,1.81
2019-03-04T20:54:56.973Z,0.92
2019-03-04T20:59:48.003Z,0.95
2019-03-04T21:04:46.946Z,0.95
2019-03-04T21:09:55.818Z,0.88
2019-03-04T21:15:04.685Z,1.18
2019-03-04T21:20:15.744Z,1.54
2019-03-04T21:25:14.579Z,1.88
2019-03-04T21:30:23.442Z,1.53
2019-03-04T21:35:32.288Z,1.54
2019-03-04T21:40:41.351Z,1.33
2019-03-04T21:45:50.168Z,1.10
2019-03-04T21:50:59.029Z,1.13
2019-03-04T21:56:07.920Z,1.18
2019-03-04T22:01:16.819Z,1.18
2019-03-04T22:06:25.770Z,1.27
2019-03-04T22:11:34.626Z,1.04
2019-03-04T22:16:43.531Z,0.95
2019-03-04T22:21:52.430Z,1.11
2019-03-04T22:27:01.353Z,0.96
2019-03-04T22:32:12.865Z,0.77
2019-03-04T22:37:18.455Z,0.94
2019-03-04T22:42:17.399Z,1.57
2019-03-04T22:47:26.350Z,0.91
2019-03-04T22:52:35.218Z,0.98
2019-03-04T22:57:44.232Z,0.82
2019-03-04T23:02:55.060Z,1.11
2019-03-04T23:08:01.469Z,1.57
2019-03-04T23:13:12.130Z,0.97
2019-03-04T23:23:17.485Z,0.82
2019-03-04T23:28:25.580Z,0.81
2019-03-04T23:33:35.002Z,0.97
2019-03-04T23:38:42.411Z,0.72
2019-03-04T23:43:55.556Z,1.02
2019-03-04T23:48:55.589Z,0.94
2019-03-04T23:53:53.017Z,0.75
2019-03-04T23:59:02.917Z,0.81
